Time;durP1;ratioP1;P1;durP2;ratioP2;P2;SDS_P1;SDS_P2;PMS_P1;PMS_P2;Temp;Humidity;BMP_temperature;BMP_pressure;BME280_temperature;BME280_humidity;BME280_pressure;Samples;Min_cycle;Max_cycle;Signal;HPM_P1;HPM_P2
2021/06/24 00:00:49;;;;;;;29.72;24.23;;;;;;;20.56;75.81;99115.66;2292324;78;20940;-82
2021/06/24 00:03:51;;;;;;;28.80;25.08;;;;;;;20.62;75.71;99118.61;2292330;78;21093;-82
2021/06/24 00:06:52;;;;;;;26.42;23.57;;;;;;;20.71;75.68;99114.41;2292899;78;21042;-81
2021/06/24 00:09:53;;;;;;;26.65;23.67;;;;;;;20.77;75.54;99117.36;2292426;78;20991;-81
2021/06/24 00:12:54;;;;;;;30.30;27.17;;;;;;;20.81;75.51;99121.71;2292197;78;20984;-81
2021/06/24 00:15:56;;;;;;;27.82;24.90;;;;;;;20.81;75.57;99118.60;2291659;78;21051;-82
2021/06/24 00:18:57;;;;;;;26.02;23.30;;;;;;;20.79;75.66;99124.37;2292868;78;21016;-81
2021/06/24 00:21:58;;;;;;;31.40;24.07;;;;;;;20.81;75.58;99125.23;2292511;78;21004;-82
2021/06/24 00:24:59;;;;;;;53.70;26.75;;;;;;;20.83;75.45;99110.60;2292778;78;21447;-82
2021/06/24 00:28:01;;;;;;;28.10;24.30;;;;;;;20.85;75.54;99118.94;2293039;78;20975;-81
2021/06/24 00:31:02;;;;;;;24.87;22.10;;;;;;;20.84;75.54;99094.64;2292610;78;20947;-81
2021/06/24 00:34:03;;;;;;;28.87;23.60;;;;;;;20.85;75.51;99082.25;2293409;78;21048;-81
2021/06/24 00:37:04;;;;;;;26.07;23.38;;;;;;;20.86;75.49;99070.73;2265454;78;21002;-81
2021/06/24 00:40:05;;;;;;;26.07;23.47;;;;;;;20.86;75.43;99065.42;2281028;78;20995;-82
2021/06/24 00:43:06;;;;;;;29.25;26.25;;;;;;;20.88;75.38;99056.97;2292149;78;20983;-81
2021/06/24 00:46:07;;;;;;;32.20;26.15;;;;;;;20.89;75.47;99049.42;2292392;78;21011;-83
2021/06/24 00:49:08;;;;;;;33.33;25.80;;;;;;;20.91;75.39;99050.25;2292231;78;20904;-83
2021/06/24 00:52:09;;;;;;;30.82;24.35;;;;;;;20.94;75.38;99041.75;2292157;78;20996;-81
2021/06/24 00:55:10;;;;;;;25.80;23.10;;;;;;;20.99;75.42;99029.23;2292116;78;20952;-81
2021/06/24 00:58:12;;;;;;;27.82;23.22;;;;;;;20.99;75.28;99036.32;2292037;78;21016;-81
2021/06/24 01:01:13;;;;;;;24.72;22.32;;;;;;;21.01;75.14;99037.61;2292095;78;20956;-81
2021/06/24 01:04:21;;;;;;;24.23;21.65;;;;;;;21.03;75.29;99030.02;2296657;77;21056;-81
2021/06/24 01:07:17;;;;;;;23.60;21.07;;;;;;;21.03;75.10;99026.50;2309031;77;21004;-81
2021/06/24 01:10:17;;;;;;;25.45;22.85;;;;;;;21.03;75.14;99023.38;2306104;77;20931;-82
2021/06/24 01:13:18;;;;;;;24.00;21.68;;;;;;;20.99;75.09;99018.62;2305803;77;20916;-81
2021/06/24 01:16:20;;;;;;;25.57;21.23;;;;;;;21.02;75.23;99018.98;2306206;77;21409;-80
2021/06/24 01:19:21;;;;;;;22.77;20.50;;;;;;;21.04;75.07;99031.77;2306388;77;21331;-82
2021/06/24 01:22:22;;;;;;;25.00;21.82;;;;;;;21.07;75.05;99052.03;2305888;77;21022;-80
2021/06/24 01:25:23;;;;;;;26.42;21.97;;;;;;;21.11;74.95;99053.70;2305858;77;20975;-80
2021/06/24 01:28:25;;;;;;;22.87;20.50;;;;;;;21.16;74.81;99048.67;2306138;77;21014;-81
2021/06/24 01:34:38;;;;;;;23.98;21.25;;;;;;;21.22;74.68;99056.92;2274429;77;21126;-81
2021/06/24 01:37:37;;;;;;;22.70;20.27;;;;;;;21.25;74.60;99062.18;2305882;77;21371;-82
2021/06/24 01:40:38;;;;;;;23.30;20.92;;;;;;;21.30;74.55;99062.92;2306815;77;21255;-81
2021/06/24 01:43:40;;;;;;;21.55;19.27;;;;;;;21.33;74.45;99051.34;2274645;77;20990;-82
2021/06/24 01:46:43;;;;;;;21.97;19.70;;;;;;;21.35;74.39;99052.17;2306504;77;20971;-81
2021/06/24 01:49:44;;;;;;;26.35;19.60;;;;;;;21.34;74.37;99044.66;2306461;77;21318;-82
2021/06/24 01:52:45;;;;;;;22.17;19.87;;;;;;;21.35;74.40;99035.78;2306427;77;20978;-82
2021/06/24 01:55:46;;;;;;;31.52;22.05;;;;;;;21.37;74.30;99039.27;2305907;77;20939;-80
2021/06/24 01:58:47;;;;;;;21.35;18.90;;;;;;;21.39;74.23;99033.45;2307068;77;20959;-80
2021/06/24 02:01:48;;;;;;;20.27;18.35;;;;;;;21.38;74.27;99023.75;2307445;77;20999;-81
2021/06/24 02:04:49;;;;;;;23.12;20.62;;;;;;;21.35;74.31;99015.88;2297096;77;21053;-82
2021/06/24 02:07:50;;;;;;;35.15;22.07;;;;;;;21.36;74.33;99021.59;2282316;78;20934;-81
2021/06/24 02:10:52;;;;;;;30.35;21.07;;;;;;;21.33;74.30;99031.44;2282106;78;20981;-81
2021/06/24 02:13:53;;;;;;;22.67;20.43;;;;;;;21.32;74.27;99020.41;2282032;78;20972;-80
2021/06/24 02:16:56;;;;;;;115.65;31.70;;;;;;;21.35;74.30;99021.64;2281349;78;21413;-80
2021/06/24 02:19:57;;;;;;;28.38;21.90;;;;;;;21.42;75.11;99022.74;2282166;78;21014;-80
2021/06/24 02:22:58;;;;;;;24.95;22.27;;;;;;;22.04;74.69;99020.03;2281317;78;21331;-81
2021/06/24 02:25:59;;;;;;;25.97;21.10;;;;;;;22.22;73.09;99016.78;2281188;78;20910;-79
2021/06/24 02:29:00;;;;;;;23.98;21.40;;;;;;;22.27;73.27;99026.39;2281328;78;20957;-81
2021/06/24 02:32:01;;;;;;;24.95;20.57;;;;;;;22.54;72.46;99021.48;2281187;78;20954;-80
2021/06/24 02:35:02;;;;;;;24.20;21.62;;;;;;;22.57;71.92;99021.42;2281128;78;21053;-80
2021/06/24 02:38:04;;;;;;;34.35;23.38;;;;;;;22.75;71.67;99030.10;2281181;78;21000;-80
2021/06/24 02:41:05;;;;;;;26.82;20.57;;;;;;;22.95;70.87;99025.91;2281397;78;21131;-81
2021/06/24 02:44:06;;;;;;;24.57;20.85;;;;;;;22.80;70.74;99032.64;2281328;78;21034;-81
2021/06/24 02:47:08;;;;;;;22.98;20.32;;;;;;;22.88;70.68;99038.56;2281257;78;21085;-80
2021/06/24 02:53:13;;;;;;;22.70;20.60;;;;;;;23.10;70.13;99036.88;2260230;78;20899;-79
2021/06/24 02:56:14;;;;;;;22.13;19.80;;;;;;;23.04;69.99;99026.91;2281145;78;21377;-79
2021/06/24 02:59:15;;;;;;;22.42;20.12;;;;;;;23.17;69.83;99009.56;2281280;78;20942;-81
2021/06/24 03:02:16;;;;;;;68.22;23.87;;;;;;;23.30;69.41;99006.86;2281283;78;21001;-79
2021/06/24 03:05:19;;;;;;;36.13;21.57;;;;;;;23.38;68.87;99014.10;2285210;78;21393;-80
2021/06/24 03:08:21;;;;;;;23.22;20.77;;;;;;;23.45;68.62;99008.11;2290955;78;21392;-81
2021/06/24 03:11:22;;;;;;;23.50;21.17;;;;;;;23.57;68.44;99005.02;2291159;78;20971;-80
2021/06/24 03:14:23;;;;;;;23.05;20.37;;;;;;;23.67;68.04;99008.20;2291075;78;21000;-80
2021/06/24 03:17:24;;;;;;;24.77;20.95;;;;;;;23.74;67.58;99001.70;2290911;78;20991;-81
2021/06/24 03:20:28;;;;;;;22.75;20.45;;;;;;;23.81;67.46;98993.41;2291058;78;20928;-81
2021/06/24 03:23:28;;;;;;;22.67;20.15;;;;;;;23.89;67.19;99001.09;2290941;78;21266;-81
2021/06/24 03:26:29;;;;;;;24.20;21.52;;;;;;;23.96;66.84;98999.92;2291036;78;21312;-80
2021/06/24 03:29:30;;;;;;;28.00;19.52;;;;;;;23.99;66.74;99002.47;2291033;78;20944;-81
2021/06/24 03:32:31;;;;;;;24.37;21.73;;;;;;;23.97;66.57;98988.80;2291726;78;20979;-82
2021/06/24 03:35:32;;;;;;;23.62;21.23;;;;;;;23.97;66.43;98975.00;2291160;78;21006;-80
2021/06/24 03:38:33;;;;;;;25.55;22.95;;;;;;;23.96;66.49;98969.27;2291324;78;20991;-79
2021/06/24 03:41:35;;;;;;;28.35;23.35;;;;;;;23.93;66.40;98968.52;2291213;78;20982;-79
2021/06/24 03:44:36;;;;;;;26.50;23.12;;;;;;;23.92;66.56;98963.66;2291087;78;21329;-80
2021/06/24 03:47:37;;;;;;;24.72;22.17;;;;;;;23.97;66.39;98960.33;2291185;78;20927;-79
2021/06/24 03:50:38;;;;;;;32.58;23.85;;;;;;;23.96;66.31;98939.07;2291331;78;21383;-80
2021/06/24 03:53:39;;;;;;;42.45;24.75;;;;;;;24.01;66.40;98935.28;2291071;78;21120;-78
2021/06/24 03:56:41;;;;;;;44.53;25.32;;;;;;;24.11;66.17;98931.77;2290659;78;21403;-79
2021/06/24 03:59:42;;;;;;;28.85;24.02;;;;;;;24.13;66.23;98929.44;2290510;78;21003;-79
2021/06/24 04:02:44;;;;;;;26.40;23.18;;;;;;;24.31;65.97;98929.66;2291242;78;21257;-79
2021/06/24 04:05:48;;;;;;;28.62;25.17;;;;;;;24.35;65.61;98939.27;2285487;78;21048;-77
2021/06/24 04:08:49;;;;;;;29.63;25.52;;;;;;;24.44;65.46;98945.55;2280417;78;21006;-79
2021/06/24 04:11:50;;;;;;;30.00;26.73;;;;;;;24.47;65.29;98953.42;2281147;78;20926;-79
2021/06/24 04:14:51;;;;;;;30.10;26.82;;;;;;;24.53;65.08;98958.97;2281179;78;21103;-80
2021/06/24 04:17:53;;;;;;;30.20;27.07;;;;;;;24.71;64.77;98960.38;2281093;78;21013;-80
2021/06/24 04:20:54;;;;;;;40.45;27.32;;;;;;;24.87;64.53;98962.36;2281855;78;20993;-79
2021/06/24 04:23:56;;;;;;;31.97;27.07;;;;;;;25.02;63.90;98970.59;2281682;78;20929;-78
2021/06/24 04:26:58;;;;;;;29.95;26.85;;;;;;;25.14;63.69;98978.52;2281338;78;21065;-79
2021/06/24 04:30:01;;;;;;;31.07;27.30;;;;;;;25.20;63.46;98986.29;2280838;78;21507;-79
2021/06/24 04:33:02;;;;;;;30.32;26.40;;;;;;;25.22;63.24;98995.10;2280313;78;20966;-79
2021/06/24 04:36:03;;;;;;;29.95;26.77;;;;;;;25.04;63.27;98989.22;2280721;78;21053;-79
2021/06/24 04:39:04;;;;;;;29.42;26.25;;;;;;;24.96;63.63;98988.66;2281110;78;21002;-79
2021/06/24 04:45:08;;;;;;;110.22;32.00;;;;;;;25.27;63.23;98993.09;2260618;78;20989;-82
2021/06/24 04:48:09;;;;;;;54.30;28.25;;;;;;;25.50;62.65;98987.16;2280461;78;21401;-79
2021/06/24 04:51:11;;;;;;;53.35;28.15;;;;;;;25.47;62.52;98981.95;2280863;78;21045;-81
2021/06/24 04:54:14;;;;;;;44.83;29.72;;;;;;;25.65;62.81;98972.63;2280499;78;21049;-78
2021/06/24 04:57:15;;;;;;;44.42;32.38;;;;;;;25.85;62.60;98962.33;2280551;78;20974;-79
2021/06/24 05:03:21;;;;;;;30.65;27.32;;;;;;;26.25;61.68;98960.39;2260990;78;20899;-81
2021/06/24 05:06:22;;;;;;;29.15;26.27;;;;;;;26.44;60.91;98963.91;2261801;77;21442;-81
2021/06/24 05:09:28;;;;;;;29.75;26.70;;;;;;;26.51;60.99;98959.98;2249067;79;21402;-77
2021/06/24 05:12:29;;;;;;;31.40;26.35;;;;;;;26.54;60.36;98956.27;2247949;79;21000;-79
2021/06/24 05:15:29;;;;;;;35.33;25.62;;;;;;;26.68;60.90;98951.55;2248932;79;21312;-79
2021/06/24 05:18:33;;;;;;;57.48;26.82;;;;;;;26.75;59.94;98940.91;2249740;79;21016;-79
2021/06/24 05:21:36;;;;;;;32.28;23.35;;;;;;;26.68;59.70;98928.79;2248864;79;21000;-80
2021/06/24 05:24:39;;;;;;;30.90;26.03;;;;;;;26.70;59.55;98927.77;2249787;79;20920;-80
2021/06/24 05:27:42;;;;;;;;;;;;;;;26.81;59.58;98932.55;2251544;79;21044;-81
2021/06/24 05:30:45;;;;;;;26.07;23.52;;;;;;;26.90;59.20;98924.93;2250241;78;20126;-80
2021/06/24 05:33:46;;;;;;;29.07;24.67;;;;;;;27.14;59.38;98920.09;2249504;79;21012;-80
2021/06/24 05:36:48;;;;;;;29.42;23.35;;;;;;;27.24;58.42;98918.65;2249332;79;21359;-79
2021/06/24 05:39:49;;;;;;;34.53;23.42;;;;;;;27.27;58.84;98924.31;2248896;79;20955;-80
2021/06/24 05:42:51;;;;;;;29.77;23.27;;;;;;;27.43;58.06;98921.66;2248385;79;21023;-79
2021/06/24 05:45:52;;;;;;;34.58;22.22;;;;;;;27.51;58.42;98922.09;2248855;79;21371;-79
2021/06/24 05:48:54;;;;;;;46.85;23.87;;;;;;;27.46;57.39;98914.78;2249416;79;21375;-82
2021/06/24 05:51:56;;;;;;;;;;;;;;;27.35;57.14;98922.55;2230061;79;21020;-80
2021/06/24 05:54:57;;;;;;;27.65;23.05;;;;;;;27.28;57.12;98945.67;2249292;78;20162;-81
2021/06/24 05:57:59;;;;;;;34.05;23.20;;;;;;;27.27;57.43;98965.84;2249656;79;21043;-80
2021/06/24 06:04:06;;;;;;;44.67;30.12;;;;;;;25.94;59.46;99010.48;2221718;79;20955;-81
2021/06/24 06:07:08;;;;;;;39.88;30.62;;;;;;;25.32;61.14;99020.94;2274016;77;21080;-81
2021/06/24 06:10:09;;;;;;;32.50;29.00;;;;;;;25.22;62.56;99014.27;2280864;78;21001;-81
2021/06/24 06:16:16;;;;;;;;;;;;;;;24.74;63.29;99024.30;2263211;78;21784;-80
2021/06/24 06:40:47;;;;;;;32.48;29.07;;;;;;;23.76;67.78;99030.03;2261705;78;20981;-81
2021/06/24 06:43:49;;;;;;;;;;;;;;;23.71;67.61;99045.80;2283617;78;21429;-81
2021/06/24 06:52:58;;;;;;;30.68;26.87;;;;;;;24.38;65.21;99092.55;2260515;78;20969;-79
2021/06/24 06:56:01;;;;;;;36.75;26.87;;;;;;;23.89;66.48;99139.72;2281363;78;21002;-79
2021/06/24 06:59:06;;;;;;;23.12;19.80;;;;;;;23.24;67.66;99147.36;2279977;78;21437;-79
2021/06/24 07:11:21;;;;;;;22.93;13.60;;;;;;;21.90;68.80;99068.72;2221596;79;21298;-78
2021/06/24 07:20:35;;;;;;;44.53;16.52;;;;;;;21.99;68.67;99061.80;2221313;79;20936;-80
2021/06/24 07:23:35;;;;;;;16.95;15.20;;;;;;;22.37;68.37;99067.72;2248523;79;21012;-79
2021/06/24 07:35:49;;;;;;;14.05;12.73;;;;;;;23.68;65.15;99048.58;2221562;79;21008;-80
2021/06/24 07:38:51;;;;;;;15.68;13.93;;;;;;;24.42;62.64;99046.13;2248874;79;20924;-80
2021/06/24 07:41:51;;;;;;;17.45;12.98;;;;;;;25.03;61.24;99028.88;2248985;78;21368;-80
2021/06/24 08:00:13;;;;;;;17.52;11.40;;;;;;;26.79;55.42;99002.73;2220551;79;20900;-79
2021/06/24 08:03:13;;;;;;;11.38;10.25;;;;;;;26.86;55.73;98985.41;2248581;79;21352;-78
2021/06/24 08:06:14;;;;;;;11.12;10.10;;;;;;;27.04;55.29;98979.62;2258738;78;21009;-78
2021/06/24 08:12:20;;;;;;;10.48;9.13;;;;;;;27.41;54.18;98973.14;2259302;78;21274;-80
2021/06/24 08:18:26;;;;;;;11.68;10.48;;;;;;;27.94;53.21;98972.89;2259680;78;20930;-80
2021/06/24 08:24:32;;;;;;;11.43;10.32;;;;;;;28.21;52.26;98950.31;2259846;78;20894;-79
2021/06/24 08:27:34;;;;;;;28.70;10.43;;;;;;;28.32;51.61;98952.41;2280831;78;21373;-78
2021/06/24 08:39:48;;;;;;;12.35;11.12;;;;;;;28.93;50.70;98916.06;2260215;78;20898;-79
2021/06/24 08:42:50;;;;;;;16.20;10.00;;;;;;;29.20;51.13;98908.09;2280877;78;20949;-79
2021/06/24 08:45:50;;;;;;;13.05;11.63;;;;;;;29.53;50.16;98913.21;2280935;78;20965;-78
2021/06/24 08:48:51;;;;;;;13.00;11.83;;;;;;;29.69;49.65;98934.60;2280888;78;20938;-80
2021/06/24 08:51:53;;;;;;;13.38;11.10;;;;;;;29.95;49.07;98926.17;2280312;78;21044;-78
2021/06/24 08:54:55;;;;;;;14.98;12.88;;;;;;;30.01;48.80;98921.28;2280311;78;21310;-78
2021/06/24 08:57:56;;;;;;;14.10;12.65;;;;;;;30.07;47.97;98921.35;2280429;78;21959;-79
2021/06/24 09:00:57;;;;;;;14.18;12.90;;;;;;;30.23;48.10;98918.50;2279655;78;21001;-79
2021/06/24 09:03:57;;;;;;;21.37;13.48;;;;;;;30.30;47.98;98920.67;2280934;78;21294;-78
2021/06/24 09:07:05;;;;;;;56.70;18.17;;;;;;;30.42;48.33;98917.18;2263411;77;20972;-79
2021/06/24 09:10:06;;;;;;;16.85;15.08;;;;;;;30.53;48.15;98920.48;2249095;79;20972;-79
2021/06/24 09:13:08;;;;;;;23.15;15.08;;;;;;;30.56;47.34;98922.11;2249059;79;20971;-79
2021/06/24 09:16:10;;;;;;;22.37;15.18;;;;;;;30.61;48.06;98920.85;2249244;79;20972;-79
2021/06/24 09:19:12;;;;;;;88.60;20.68;;;;;;;30.63;48.03;98907.28;2249427;79;20952;-78
2021/06/24 09:22:12;;;;;;;21.82;14.73;;;;;;;30.73;47.39;98903.84;2249422;79;20956;-78
2021/06/24 09:25:14;;;;;;;18.35;15.18;;;;;;;30.62;47.63;98902.38;2250095;79;20948;-81
2021/06/24 09:28:15;;;;;;;19.27;15.13;;;;;;;30.63;47.97;98898.71;2248642;79;21073;-78
2021/06/24 09:31:16;;;;;;;74.92;18.92;;;;;;;30.86;48.19;98909.72;2248866;79;21031;-78
2021/06/24 09:34:18;;;;;;;17.30;14.20;;;;;;;31.09;47.70;98897.31;2249420;79;20940;-80
2021/06/24 09:37:19;;;;;;;17.70;13.90;;;;;;;31.30;46.17;98898.53;2249156;79;20947;-79
2021/06/24 09:40:20;;;;;;;19.90;14.30;;;;;;;31.28;46.87;98901.34;2249554;79;20947;-80
2021/06/24 09:43:21;;;;;;;18.67;16.17;;;;;;;31.39;46.38;98903.27;2248755;79;20999;-79
2021/06/24 09:46:26;;;;;;;24.67;15.28;;;;;;;31.45;46.41;98899.26;2249157;79;21306;-78
2021/06/24 09:49:26;;;;;;;20.23;15.40;;;;;;;31.65;46.19;98902.22;2248670;79;20932;-79
2021/06/24 09:52:27;;;;;;;16.35;14.23;;;;;;;31.95;46.01;98906.35;2249042;79;20972;-78
2021/06/24 09:55:28;;;;;;;17.75;14.83;;;;;;;32.11;45.46;98894.80;2249238;79;21356;-79
2021/06/24 09:58:30;;;;;;;18.20;14.90;;;;;;;32.15;45.42;98890.89;2249077;79;20996;-79
2021/06/24 10:01:35;;;;;;;54.42;19.15;;;;;;;32.28;45.21;98894.91;2248903;79;20992;-79
2021/06/24 10:04:36;;;;;;;18.98;14.73;;;;;;;32.59;44.23;98894.76;2249350;79;20949;-79
2021/06/24 10:07:37;;;;;;;23.67;15.70;;;;;;;32.73;43.77;98895.89;2267952;77;21033;-78
2021/06/24 10:10:38;;;;;;;16.25;13.85;;;;;;;32.79;44.04;98891.39;2281488;78;20918;-79
2021/06/24 10:13:39;;;;;;;19.32;13.88;;;;;;;32.89;43.57;98889.69;2281543;78;20993;-78
2021/06/24 10:16:41;;;;;;;18.57;13.95;;;;;;;33.14;43.25;98894.03;2281815;78;21025;-81
2021/06/24 10:19:42;;;;;;;16.50;13.10;;;;;;;33.43;41.92;98894.92;2282247;78;20909;-83
2021/06/24 10:22:46;;;;;;;119.62;22.55;;;;;;;33.43;41.92;98894.92;2282035;78;21689;-81
2021/06/24 10:25:47;;;;;;;22.00;13.20;;;;;;;33.37;42.16;98890.00;2281368;78;20974;-81
2021/06/24 10:28:48;;;;;;;16.62;12.88;;;;;;;33.52;41.72;98886.91;2282040;78;20887;-82
2021/06/24 10:31:50;;;;;;;18.87;13.05;;;;;;;33.75;40.87;98878.74;2282053;78;20902;-82
2021/06/24 10:34:52;;;;;;;29.27;13.00;;;;;;;33.75;40.87;98878.74;2281645;78;20890;-81
2021/06/24 10:37:53;;;;;;;20.17;12.37;;;;;;;33.96;40.65;98883.79;2281698;78;21061;-80
2021/06/24 10:40:55;;;;;;;16.57;11.85;;;;;;;34.14;40.59;98879.53;2281656;78;21332;-84
2021/06/24 10:43:56;;;;;;;31.82;12.68;;;;;;;34.23;40.09;98870.27;2281687;78;21258;-81
2021/06/24 10:46:57;;;;;;;21.15;13.43;;;;;;;34.30;39.59;98861.98;2281816;78;20981;-82
2021/06/24 10:49:59;;;;;;;14.03;11.30;;;;;;;34.31;39.45;98869.12;2281934;78;20901;-82
2021/06/24 10:53:00;;;;;;;26.15;15.68;;;;;;;34.31;39.26;98860.49;2281596;78;20954;-81
2021/06/24 10:56:02;;;;;;;37.20;13.45;;;;;;;34.39;39.04;98860.73;2281415;78;20918;-79
2021/06/24 10:59:07;;;;;;;16.93;12.75;;;;;;;34.33;39.65;98863.11;2281293;78;23532;-80
2021/06/24 11:02:08;;;;;;;19.98;12.07;;;;;;;34.56;39.31;98863.34;2282032;78;20958;-80
2021/06/24 11:05:10;;;;;;;;;;;;;;;34.70;38.48;98861.67;2284577;78;21006;-81
2021/06/24 11:11:20;;;;;;;16.42;12.13;;;;;;;35.04;38.34;98852.83;2249837;79;20975;-80
2021/06/24 11:14:21;;;;;;;76.47;16.15;;;;;;;35.14;38.06;98854.22;2250120;79;20923;-80
2021/06/24 11:17:22;;;;;;;16.67;11.30;;;;;;;35.27;37.59;98859.41;2249174;79;20968;-81
2021/06/24 11:20:27;;;;;;;18.12;11.20;;;;;;;35.24;36.96;98855.12;2250183;79;20939;-82
2021/06/24 11:23:26;;;;;;;23.15;12.07;;;;;;;35.19;37.60;98858.73;2249884;79;20940;-81
2021/06/24 11:26:28;;;;;;;46.80;15.35;;;;;;;35.41;37.41;98855.84;2251166;79;20873;-81
2021/06/24 11:32:46;;;;;;;12.20;10.75;;;;;;;35.70;36.67;98848.30;2223317;79;20961;-80
2021/06/24 11:35:57;;;;;;;12.47;10.18;;;;;;;35.87;35.97;98858.50;2249600;79;20912;-79
2021/06/24 11:38:52;;;;;;;18.27;11.53;;;;;;;35.82;36.05;98852.64;2248557;79;20996;-79
2021/06/24 11:41:54;;;;;;;23.07;11.75;;;;;;;35.86;35.93;98854.08;2249807;79;20956;-79
2021/06/24 11:44:56;;;;;;;18.73;11.28;;;;;;;35.98;36.05;98846.15;2248996;79;20960;-79
2021/06/24 11:47:57;;;;;;;;;;;;;;;35.80;35.54;98841.03;2251872;79;20999;-79
2021/06/24 12:04:16;;;;;;;24.60;11.22;;;;;;;34.98;37.14;98826.25;2249284;79;21161;-79
2021/06/24 12:07:18;;;;;;;;;;;;;;;35.05;37.41;98826.56;2257197;77;20991;-78
2021/06/24 12:10:19;;;;;;;19.87;11.68;;;;;;;35.29;37.27;98817.58;2262805;78;20097;-78
2021/06/24 12:13:20;;;;;;;24.30;10.90;;;;;;;35.57;36.17;98817.84;2262951;79;20919;-78
2021/06/24 12:16:21;;;;;;;13.68;10.50;;;;;;;35.80;36.50;98823.38;2257121;79;21629;-81
2021/06/24 12:19:23;;;;;;;21.23;12.07;;;;;;;36.05;35.68;98817.41;2249230;79;20912;-78
2021/06/24 12:22:24;;;;;;;20.90;11.18;;;;;;;35.84;35.27;98813.98;2248957;79;21074;-79
2021/06/24 12:25:26;;;;;;;16.55;11.57;;;;;;;35.66;36.03;98814.28;2249220;79;20960;-79
2021/06/24 12:28:27;;;;;;;22.27;10.97;;;;;;;35.84;35.74;98811.27;2249346;79;20916;-78
2021/06/24 12:31:32;;;;;;;18.73;10.85;;;;;;;36.15;35.51;98801.10;2248146;79;20940;-76
2021/06/24 12:34:31;;;;;;;16.20;10.03;;;;;;;36.08;34.93;98800.47;2247887;79;21388;-77
2021/06/24 12:37:32;;;;;;;19.85;11.78;;;;;;;36.18;34.89;98795.88;2248866;79;21387;-77
2021/06/24 12:40:33;;;;;;;14.40;10.43;;;;;;;36.28;34.61;98790.81;2248962;79;20984;-77
2021/06/24 12:43:36;;;;;;;15.60;11.25;;;;;;;36.33;34.32;98788.52;2249045;79;21066;-77
2021/06/24 12:46:37;;;;;;;;;;;;;;;36.24;34.45;98778.99;2251198;79;20897;-78
2021/06/24 12:49:38;;;;;;;20.12;10.48;;;;;;;36.29;33.47;98776.23;2249053;79;20094;-77
2021/06/24 12:52:39;;;;;;;21.62;10.00;;;;;;;36.27;34.72;98770.55;2248978;79;21301;-78
2021/06/24 12:55:40;;;;;;;25.40;11.63;;;;;;;36.54;34.12;98765.75;2248644;79;20988;-77
2021/06/24 12:58:41;;;;;;;19.07;11.00;;;;;;;36.68;33.99;98749.81;2248984;79;21008;-78
2021/06/24 13:01:43;;;;;;;18.25;10.00;;;;;;;36.78;33.34;98736.21;2249144;79;20984;-76
2021/06/24 13:04:44;;;;;;;17.75;10.48;;;;;;;36.51;33.44;98727.48;2248529;79;21507;-78
2021/06/24 13:07:45;;;;;;;16.35;10.65;;;;;;;36.20;33.23;98732.73;2262097;77;21350;-78
2021/06/24 13:10:46;;;;;;;17.65;10.53;;;;;;;35.58;33.45;98731.34;2281329;78;20926;-78
2021/06/24 13:13:47;;;;;;;15.30;10.50;;;;;;;35.22;34.56;98736.88;2281238;78;21405;-77
2021/06/24 13:16:49;;;;;;;15.25;10.43;;;;;;;34.95;35.53;98745.66;2281085;78;20934;-78
2021/06/24 13:19:50;;;;;;;17.50;12.35;;;;;;;34.66;36.15;98743.63;2281232;78;21296;-76
2021/06/24 13:22:51;;;;;;;15.10;11.85;;;;;;;34.27;36.65;98733.56;2281117;78;20945;-78
2021/06/24 13:25:52;;;;;;;18.25;12.00;;;;;;;34.14;37.29;98735.98;2281184;78;21361;-80
2021/06/24 13:28:53;;;;;;;16.12;12.50;;;;;;;34.15;37.15;98728.22;2281605;78;20887;-78
2021/06/24 13:31:55;;;;;;;18.52;13.28;;;;;;;33.99;37.90;98731.89;2281238;78;21385;-79
2021/06/24 13:34:56;;;;;;;20.32;13.68;;;;;;;33.79;37.81;98723.20;2281423;78;21009;-79
2021/06/24 13:37:57;;;;;;;17.10;12.33;;;;;;;33.59;38.48;98695.13;2281434;78;20941;-79
2021/06/24 13:40:58;;;;;;;24.37;14.00;;;;;;;33.27;39.05;98697.80;2282272;78;20945;-78
2021/06/24 13:43:59;;;;;;;24.60;14.18;;;;;;;33.18;40.12;98745.90;2281749;78;20891;-78
2021/06/24 13:47:01;;;;;;;22.30;12.70;;;;;;;33.02;40.36;98737.33;2282284;78;21042;-79
2021/06/24 13:50:02;;;;;;;21.40;14.38;;;;;;;32.81;40.39;98709.67;2282209;78;21278;-79
2021/06/24 13:53:03;;;;;;;17.10;14.13;;;;;;;32.47;41.04;98706.59;2281914;78;20903;-78
2021/06/24 13:56:04;;;;;;;23.70;14.10;;;;;;;32.30;42.05;98729.05;2281997;78;21144;-79
2021/06/24 13:59:05;;;;;;;19.70;15.23;;;;;;;32.21;42.72;98744.59;2281715;78;20967;-79
2021/06/24 14:02:06;;;;;;;23.02;13.93;;;;;;;32.14;42.92;98733.05;2281297;78;20954;-78
2021/06/24 14:05:07;;;;;;;21.20;13.80;;;;;;;32.04;43.22;98744.16;2281256;78;20922;-78
2021/06/24 14:08:08;;;;;;;20.90;14.45;;;;;;;31.90;43.72;98748.79;2286153;78;21014;-78
2021/06/24 14:11:12;;;;;;;15.13;13.53;;;;;;;31.90;44.43;98745.23;2291515;78;20952;-78
2021/06/24 14:17:14;;;;;;;28.20;14.15;;;;;;;31.73;43.88;98717.33;2267256;78;20988;-78
2021/06/24 14:20:16;;;;;;;30.88;21.12;;;;;;;31.66;44.71;98708.33;2290643;78;20960;-77
2021/06/24 14:23:18;;;;;;;23.38;17.00;;;;;;;31.54;45.32;98700.30;2291286;78;21007;-79
2021/06/24 14:26:19;;;;;;;39.88;19.50;;;;;;;31.41;45.74;98691.42;2291391;78;20992;-78
2021/06/24 14:29:19;;;;;;;40.28;19.25;;;;;;;31.38;46.65;98708.70;2291167;78;21301;-78
2021/06/24 14:32:21;;;;;;;43.78;23.32;;;;;;;31.43;47.58;98731.28;2291327;78;21284;-78
2021/06/24 14:35:22;;;;;;;25.37;16.77;;;;;;;31.34;49.00;98712.61;2291693;78;20971;-79
2021/06/24 14:38:23;;;;;;;451.63;75.72;;;;;;;31.08;49.16;98699.66;2291302;78;21386;-77
2021/06/24 14:41:25;;;;;;;94.50;30.85;;;;;;;30.66;50.44;98663.26;2291199;78;20896;-78
2021/06/24 14:44:26;;;;;;;58.85;31.10;;;;;;;30.52;51.34;98628.36;2291263;78;21376;-78
2021/06/24 14:47:27;;;;;;;84.28;28.83;;;;;;;30.49;52.16;98639.36;2291573;78;20920;-79
2021/06/24 14:50:28;;;;;;;28.35;18.98;;;;;;;30.52;52.67;98644.52;2291193;78;20944;-79
2021/06/24 14:53:29;;;;;;;26.12;18.15;;;;;;;30.52;52.68;98644.03;2291303;78;21328;-78
2021/06/24 14:56:30;;;;;;;62.95;20.90;;;;;;;30.49;52.99;98639.36;2291571;78;20900;-80
2021/06/24 14:59:31;;;;;;;44.70;19.65;;;;;;;30.40;53.04;98635.50;2291720;78;20932;-78
2021/06/24 15:02:32;;;;;;;56.45;22.32;;;;;;;30.30;53.43;98640.66;2292189;78;20961;-79
2021/06/24 15:05:33;;;;;;;37.75;20.97;;;;;;;30.24;53.86;98671.19;2291252;78;20973;-79
2021/06/24 15:08:34;;;;;;;34.45;20.50;;;;;;;30.14;54.45;98679.06;2290690;78;21036;-79
2021/06/24 15:11:35;;;;;;;69.58;23.02;;;;;;;29.92;54.43;98701.69;2290860;78;20925;-79
2021/06/24 15:14:36;;;;;;;99.85;31.15;;;;;;;29.84;55.53;98679.34;2292179;78;20916;-82
2021/06/24 15:17:37;;;;;;;45.75;22.05;;;;;;;29.70;56.81;98664.16;2292015;78;21331;-79
2021/06/24 15:20:39;;;;;;;37.93;21.52;;;;;;;29.40;57.37;98646.89;2291806;78;20972;-78
2021/06/24 15:23:40;;;;;;;34.73;20.23;;;;;;;29.19;59.68;98681.94;2291585;78;20999;-78
2021/06/24 15:26:41;;;;;;;34.48;20.32;;;;;;;28.93;60.27;98693.06;2291637;78;20969;-79
2021/06/24 15:29:42;;;;;;;27.85;18.92;;;;;;;28.84;60.45;98664.11;2291894;78;20945;-79
2021/06/24 15:32:44;;;;;;;36.25;20.32;;;;;;;28.75;59.88;98651.25;2291950;78;20960;-79
2021/06/24 15:35:45;;;;;;;33.48;19.73;;;;;;;28.18;60.28;98629.80;2291956;78;20944;-78
2021/06/24 15:38:46;;;;;;;26.60;18.48;;;;;;;27.42;61.72;98628.62;2291452;77;21351;-80
2021/06/24 15:41:47;;;;;;;30.57;19.48;;;;;;;27.47;63.31;98623.84;2291977;78;20995;-79
2021/06/24 15:44:49;;;;;;;28.52;18.42;;;;;;;27.77;63.16;98630.56;2291911;78;20904;-79
2021/06/24 15:47:50;;;;;;;27.13;19.82;;;;;;;27.81;62.61;98641.48;2291906;78;20972;-77
2021/06/24 15:50:51;;;;;;;35.55;20.48;;;;;;;27.72;63.62;98640.67;2291518;78;20905;-77
2021/06/24 15:53:53;;;;;;;37.33;20.88;;;;;;;27.84;63.98;98648.48;2291567;78;20971;-80
2021/06/24 15:56:54;;;;;;;33.95;22.80;;;;;;;27.99;64.07;98689.12;2291478;78;20976;-79
2021/06/24 15:59:55;;;;;;;32.75;19.57;;;;;;;28.03;63.68;98684.42;2291760;78;21260;-80
2021/06/24 16:02:56;;;;;;;25.02;19.98;;;;;;;28.06;63.92;98682.89;2292025;78;20916;-78